createdAt,value
2017-12-30T00:00:24.400Z,0.00
2017-12-30T00:01:24.308Z,0.00
2017-12-30T00:03:17.562Z,0.00
2017-12-30T00:04:17.491Z,0.00
2017-12-30T00:06:10.873Z,0.00
2017-12-30T00:07:10.675Z,0.00
2017-12-30T00:09:03.926Z,0.00
2017-12-30T00:10:03.862Z,0.00
2017-12-30T00:11:57.132Z,0.00
2017-12-30T00:12:57.041Z,0.00
2017-12-30T00:14:50.291Z,0.00
2017-12-30T00:15:50.219Z,0.00
2017-12-30T00:17:43.501Z,0.00
2017-12-30T00:18:43.410Z,0.00
2017-12-30T00:20:36.680Z,0.00
2017-12-30T00:21:36.590Z,0.00
2017-12-30T00:23:29.844Z,0.00
2017-12-30T00:24:29.772Z,0.00
2017-12-30T00:26:23.160Z,0.00
2017-12-30T00:27:22.966Z,0.00
2017-12-30T00:29:16.212Z,0.00
2017-12-30T00:30:16.142Z,0.00
2017-12-30T00:32:09.412Z,0.00
2017-12-30T00:33:09.318Z,0.00
2017-12-30T00:35:02.578Z,0.00
2017-12-30T00:36:02.505Z,0.00
2017-12-30T00:37:55.780Z,0.00
2017-12-30T00:38:55.684Z,0.00
2017-12-30T00:40:49.067Z,0.00
2017-12-30T00:41:48.869Z,0.00
2017-12-30T00:43:42.125Z,0.00
2017-12-30T00:44:42.055Z,0.00
2017-12-30T00:46:35.395Z,0.00
2017-12-30T00:47:35.304Z,0.00
2017-12-30T00:49:28.562Z,0.00
2017-12-30T00:50:28.490Z,0.00
2017-12-30T00:52:21.874Z,0.00
2017-12-30T00:53:21.673Z,0.00
2017-12-30T00:55:14.925Z,0.00
2017-12-30T00:56:14.856Z,0.00
2017-12-30T00:58:08.239Z,0.00
2017-12-30T00:59:08.034Z,0.00
2017-12-30T01:01:01.394Z,0.00
2017-12-30T01:02:01.313Z,0.00
2017-12-30T01:03:54.560Z,0.00
2017-12-30T01:04:54.488Z,0.00
2017-12-30T01:06:47.760Z,0.00
2017-12-30T01:07:47.669Z,0.00
2017-12-30T01:09:40.931Z,0.00
2017-12-30T01:10:40.862Z,0.00
2017-12-30T01:12:34.147Z,0.00
2017-12-30T01:13:34.046Z,0.00
2017-12-30T01:15:27.376Z,0.00
2017-12-30T01:16:27.302Z,0.00
2017-12-30T01:18:20.577Z,0.00
2017-12-30T01:19:20.487Z,0.00
2017-12-30T01:21:13.760Z,0.00
2017-12-30T01:22:13.668Z,0.00
2017-12-30T01:24:07.031Z,0.00
2017-12-30T01:25:06.851Z,0.00
2017-12-30T01:27:00.132Z,0.00
2017-12-30T01:28:00.042Z,0.00
2017-12-30T01:29:53.378Z,0.00
2017-12-30T01:30:53.309Z,0.00
2017-12-30T01:32:46.577Z,0.00
2017-12-30T01:33:46.488Z,0.00
2017-12-30T01:35:39.740Z,0.00
2017-12-30T01:36:39.669Z,0.00
2017-12-30T01:38:32.946Z,0.00
2017-12-30T01:39:32.854Z,0.00
2017-12-30T01:41:26.128Z,0.00
2017-12-30T01:42:26.051Z,0.00
2017-12-30T01:44:19.376Z,0.00
2017-12-30T01:45:19.305Z,0.00
2017-12-30T01:47:12.581Z,0.00
2017-12-30T01:48:12.488Z,0.00
2017-12-30T01:50:05.732Z,0.00
2017-12-30T01:51:05.664Z,0.00
2017-12-30T01:52:58.934Z,0.00
2017-12-30T01:53:58.844Z,0.00
2017-12-30T01:55:52.210Z,0.00
2017-12-30T01:56:52.027Z,0.00
2017-12-30T01:58:45.396Z,0.00
2017-12-30T01:59:45.306Z,0.00
2017-12-30T02:01:38.576Z,0.00
2017-12-30T02:02:38.487Z,0.00
2017-12-30T02:04:31.745Z,0.00
2017-12-30T02:05:31.669Z,0.00
2017-12-30T02:07:24.948Z,0.00
2017-12-30T02:08:24.851Z,0.00
2017-12-30T02:10:18.107Z,0.00
2017-12-30T02:11:18.036Z,0.00
2017-12-30T02:13:11.397Z,0.00
2017-12-30T02:14:11.303Z,0.00
2017-12-30T02:16:04.557Z,0.00
2017-12-30T02:17:04.485Z,0.00
2017-12-30T02:18:57.760Z,0.00
2017-12-30T02:19:57.670Z,0.00
2017-12-30T02:21:50.941Z,0.00
2017-12-30T02:22:50.850Z,0.00
2017-12-30T02:24:44.217Z,0.00
2017-12-30T02:25:44.036Z,0.00
2017-12-30T02:27:37.397Z,0.00
2017-12-30T02:28:37.308Z,0.00
2017-12-30T02:30:30.567Z,0.00
2017-12-30T02:31:30.485Z,0.00
2017-12-30T02:33:23.764Z,0.00
2017-12-30T02:34:23.673Z,0.00
2017-12-30T02:36:16.939Z,0.00
2017-12-30T02:37:16.863Z,0.00
2017-12-30T02:39:10.140Z,0.00
2017-12-30T02:40:10.048Z,0.00
2017-12-30T02:42:03.398Z,0.00
2017-12-30T02:43:03.305Z,0.00
2017-12-30T02:44:56.557Z,0.00
2017-12-30T02:45:56.484Z,0.00
2017-12-30T02:47:49.758Z,0.00
2017-12-30T02:48:49.668Z,0.00
2017-12-30T02:50:42.923Z,0.00
2017-12-30T02:51:42.850Z,0.00
2017-12-30T02:53:36.234Z,0.00
2017-12-30T02:54:36.035Z,0.00
2017-12-30T02:56:29.394Z,0.00
2017-12-30T02:57:29.304Z,0.00
2017-12-30T02:59:22.578Z,0.00
2017-12-30T03:00:22.487Z,0.00
2017-12-30T03:02:15.761Z,0.00
2017-12-30T03:03:15.675Z,0.00
2017-12-30T03:05:08.929Z,0.00
2017-12-30T03:06:08.856Z,0.00
2017-12-30T03:08:02.248Z,0.00
2017-12-30T03:09:02.053Z,0.00
2017-12-30T03:10:55.377Z,0.00
2017-12-30T03:11:55.304Z,0.00
2017-12-30T03:13:48.590Z,0.00
2017-12-30T03:14:48.489Z,0.00
2017-12-30T03:16:41.851Z,0.00
2017-12-30T03:17:41.668Z,0.00
2017-12-30T03:19:34.941Z,0.00
2017-12-30T03:20:34.852Z,0.00
2017-12-30T03:22:28.236Z,0.00
2017-12-30T03:23:28.036Z,0.00
2017-12-30T03:25:21.290Z,0.00
2017-12-30T03:26:21.284Z,0.00
2017-12-30T03:28:14.494Z,0.00
2017-12-30T03:29:14.400Z,0.00
2017-12-30T03:31:07.765Z,0.00
2017-12-30T03:32:07.591Z,0.00
2017-12-30T03:34:00.866Z,0.00
2017-12-30T03:35:00.772Z,0.00
2017-12-30T03:36:54.049Z,0.00
2017-12-30T03:37:53.958Z,0.00
2017-12-30T03:39:47.338Z,0.00
2017-12-30T03:40:47.140Z,0.00
2017-12-30T03:42:40.412Z,0.00
2017-12-30T03:43:40.321Z,0.00
2017-12-30T03:45:33.572Z,0.00
2017-12-30T03:46:33.503Z,0.00
2017-12-30T03:48:26.774Z,0.00
2017-12-30T03:49:26.687Z,0.00
2017-12-30T03:51:20.048Z,0.00
2017-12-30T03:52:19.865Z,0.00
2017-12-30T03:54:13.142Z,0.00
2017-12-30T03:55:13.054Z,0.00
2017-12-30T03:57:06.339Z,0.00
2017-12-30T03:58:06.236Z,0.00
2017-12-30T03:59:59.471Z,0.00
2017-12-30T04:00:59.405Z,0.00
2017-12-30T04:02:52.684Z,0.00
2017-12-30T04:03:52.589Z,0.00
2017-12-30T04:05:45.973Z,0.00
2017-12-30T04:06:45.776Z,0.00
2017-12-30T04:08:39.046Z,0.00
2017-12-30T04:09:38.958Z,0.00
2017-12-30T04:11:32.209Z,0.00
2017-12-30T04:12:32.138Z,0.00
2017-12-30T04:14:25.407Z,0.00
2017-12-30T04:15:25.315Z,0.00
2017-12-30T04:17:18.756Z,0.00
2017-12-30T04:18:18.505Z,0.00
2017-12-30T04:20:11.751Z,0.00
2017-12-30T04:21:11.680Z,0.00
2017-12-30T04:23:04.953Z,0.00
2017-12-30T04:24:04.861Z,0.00
2017-12-30T04:25:58.114Z,0.00
2017-12-30T04:26:58.038Z,0.00
2017-12-30T04:28:51.423Z,0.00
2017-12-30T04:29:51.303Z,0.00
2017-12-30T04:31:44.603Z,0.00
2017-12-30T04:32:44.484Z,0.00
2017-12-30T04:34:37.757Z,0.00
2017-12-30T04:35:37.665Z,0.00
2017-12-30T04:37:30.947Z,0.00
2017-12-30T04:38:30.852Z,0.00
2017-12-30T04:40:24.102Z,0.00
2017-12-30T04:41:24.032Z,0.00
2017-12-30T04:43:17.413Z,0.00
2017-12-30T04:44:17.305Z,0.00
2017-12-30T04:46:10.670Z,0.00
2017-12-30T04:47:10.487Z,0.00
2017-12-30T04:49:03.756Z,0.00
2017-12-30T04:50:03.663Z,0.00
2017-12-30T04:51:56.924Z,0.00
2017-12-30T04:52:56.853Z,0.00
2017-12-30T04:54:50.123Z,0.00
2017-12-30T04:55:50.033Z,0.00
2017-12-30T04:57:43.414Z,0.00
2017-12-30T04:58:43.304Z,0.00
2017-12-30T05:00:36.558Z,0.00
2017-12-30T05:01:36.484Z,0.00
2017-12-30T05:03:29.756Z,0.00
2017-12-30T05:04:29.667Z,0.00
2017-12-30T05:06:23.032Z,0.00
2017-12-30T05:07:22.849Z,0.00
2017-12-30T05:09:16.123Z,0.00
2017-12-30T05:10:16.031Z,0.00
2017-12-30T05:12:09.376Z,0.00
2017-12-30T05:13:09.314Z,0.00
2017-12-30T05:15:02.688Z,0.00
2017-12-30T05:16:02.485Z,0.00
2017-12-30T05:17:55.754Z,0.00
2017-12-30T05:18:55.666Z,0.00
2017-12-30T05:20:49.028Z,0.00
2017-12-30T05:21:48.847Z,0.00
2017-12-30T05:23:42.118Z,0.00
2017-12-30T05:24:42.026Z,0.00
2017-12-30T05:26:35.388Z,0.00
2017-12-30T05:27:35.196Z,0.00
2017-12-30T05:29:28.577Z,0.00
2017-12-30T05:30:28.366Z,0.00
2017-12-30T05:32:21.129Z,0.00
2017-12-30T05:33:21.055Z,0.00
2017-12-30T05:35:14.312Z,0.00
2017-12-30T05:36:14.222Z,0.00
2017-12-30T05:38:07.493Z,0.00
2017-12-30T05:39:07.403Z,0.00
2017-12-30T05:41:00.656Z,0.00
2017-12-30T05:42:00.584Z,0.00
2017-12-30T05:43:53.846Z,0.00
2017-12-30T05:44:53.754Z,0.00
2017-12-30T05:46:47.007Z,0.00
2017-12-30T05:47:46.934Z,0.00
2017-12-30T05:49:40.208Z,0.00
2017-12-30T05:50:40.117Z,0.00
2017-12-30T05:52:33.383Z,0.00
2017-12-30T05:53:33.307Z,0.00
2017-12-30T05:55:26.688Z,0.00
2017-12-30T05:56:26.489Z,0.00
2017-12-30T05:58:19.755Z,0.00
2017-12-30T05:59:19.665Z,0.00
2017-12-30T06:01:12.919Z,0.00
2017-12-30T06:02:12.847Z,0.00
2017-12-30T06:04:06.116Z,0.00
2017-12-30T06:05:06.031Z,0.00
2017-12-30T06:06:59.394Z,0.00
2017-12-30T06:07:59.305Z,0.00
2017-12-30T06:09:52.568Z,0.00
2017-12-30T06:10:52.479Z,0.00
2017-12-30T06:12:45.733Z,0.00
2017-12-30T06:13:45.663Z,0.00
2017-12-30T06:15:38.941Z,0.00
2017-12-30T06:16:38.843Z,0.00
2017-12-30T06:18:32.103Z,0.00
2017-12-30T06:19:32.010Z,0.00
2017-12-30T06:21:25.264Z,0.00
2017-12-30T06:22:25.199Z,0.00
2017-12-30T06:24:18.466Z,0.00
2017-12-30T06:25:18.375Z,0.00
2017-12-30T06:27:11.626Z,0.00
2017-12-30T06:28:11.560Z,0.00
2017-12-30T06:30:04.819Z,0.00
2017-12-30T06:31:04.726Z,0.00
2017-12-30T06:32:58.095Z,0.00
2017-12-30T06:33:57.914Z,0.00
2017-12-30T06:35:51.295Z,0.00
2017-12-30T06:36:51.094Z,0.00
2017-12-30T06:38:44.366Z,0.00
2017-12-30T06:39:44.276Z,0.00
2017-12-30T06:41:37.528Z,0.00
2017-12-30T06:42:37.458Z,0.00
2017-12-30T06:44:30.718Z,0.00
2017-12-30T06:45:30.630Z,0.00
2017-12-30T06:47:23.875Z,0.00
2017-12-30T06:48:23.801Z,0.00
2017-12-30T06:50:17.064Z,0.00
2017-12-30T06:51:16.972Z,0.00
2017-12-30T06:53:10.226Z,0.00
2017-12-30T06:54:10.156Z,0.00
2017-12-30T06:56:03.430Z,0.00
2017-12-30T06:57:03.336Z,0.00
2017-12-30T06:58:56.608Z,0.00
2017-12-30T06:59:56.522Z,0.00
2017-12-30T07:01:49.768Z,0.00
2017-12-30T07:02:49.696Z,0.00
2017-12-30T07:04:43.077Z,0.00
2017-12-30T07:05:42.877Z,0.00
2017-12-30T07:07:36.132Z,0.00
2017-12-30T07:08:36.058Z,0.00
2017-12-30T07:10:29.392Z,0.00
2017-12-30T07:11:29.302Z,0.00
2017-12-30T07:13:22.663Z,4.00
2017-12-30T07:14:22.483Z,4.00
2017-12-30T07:16:15.765Z,4.00
2017-12-30T07:17:15.673Z,4.00
2017-12-30T07:19:08.943Z,4.00
2017-12-30T07:20:08.852Z,0.00
2017-12-30T07:22:02.107Z,4.00
2017-12-30T07:23:02.035Z,4.00
2017-12-30T07:24:55.395Z,4.00
2017-12-30T07:25:55.302Z,4.00
2017-12-30T07:27:48.556Z,8.00
2017-12-30T07:28:48.485Z,8.00
2017-12-30T07:30:41.866Z,4.00
2017-12-30T07:31:41.669Z,8.00
2017-12-30T07:33:34.934Z,8.00
2017-12-30T07:34:34.847Z,12.00
2017-12-30T07:36:28.120Z,16.00
2017-12-30T07:37:28.028Z,16.00
2017-12-30T07:39:21.289Z,20.00
2017-12-30T07:40:21.199Z,20.00
2017-12-30T07:42:14.596Z,24.00
2017-12-30T07:43:14.386Z,20.00
2017-12-30T07:45:07.651Z,24.00
2017-12-30T07:46:07.558Z,28.00
2017-12-30T07:48:00.808Z,36.00
2017-12-30T07:49:00.736Z,36.00
2017-12-30T07:50:54.004Z,40.00
2017-12-30T07:51:53.917Z,40.00
2017-12-30T07:53:47.166Z,44.00
2017-12-30T07:54:47.095Z,52.00
2017-12-30T07:56:40.363Z,60.00
2017-12-30T07:57:40.314Z,68.00
2017-12-30T07:59:33.535Z,100.00
2017-12-30T08:00:33.442Z,100.00
2017-12-30T08:02:26.698Z,76.00
2017-12-30T08:03:26.620Z,76.00
2017-12-30T08:05:19.889Z,92.00
2017-12-30T08:06:19.799Z,112.00
2017-12-30T08:08:13.054Z,140.00
2017-12-30T08:09:12.980Z,148.00
2017-12-30T08:11:06.250Z,172.00
2017-12-30T08:12:06.159Z,196.00
2017-12-30T08:13:59.409Z,252.00
2017-12-30T08:14:59.336Z,284.00
2017-12-30T08:16:52.718Z,308.00
2017-12-30T08:17:52.514Z,288.00
2017-12-30T08:19:45.775Z,236.00
2017-12-30T08:20:45.687Z,252.00
2017-12-30T08:22:39.046Z,324.00
2017-12-30T08:23:38.861Z,400.00
2017-12-30T08:25:32.134Z,468.00
2017-12-30T08:26:32.037Z,480.00
2017-12-30T08:28:25.293Z,440.00
2017-12-30T08:29:25.218Z,392.00
2017-12-30T08:31:18.492Z,360.00
2017-12-30T08:32:18.394Z,356.00
2017-12-30T08:34:12.504Z,340.00
2017-12-30T08:35:12.431Z,368.00
2017-12-30T08:37:05.700Z,336.00
2017-12-30T08:38:05.609Z,344.00
2017-12-30T08:39:59.995Z,332.00
2017-12-30T08:40:59.778Z,312.00
2017-12-30T08:42:53.137Z,344.00
2017-12-30T08:43:52.954Z,368.00
2017-12-30T08:45:46.222Z,460.00
2017-12-30T08:46:46.130Z,508.00
2017-12-30T08:48:39.379Z,652.00
2017-12-30T08:49:39.308Z,696.00
2017-12-30T08:51:32.690Z,528.00
2017-12-30T08:52:32.488Z,500.00
2017-12-30T08:54:25.735Z,640.00
2017-12-30T08:55:25.664Z,648.00
2017-12-30T08:57:18.932Z,680.00
2017-12-30T08:58:18.839Z,676.00
2017-12-30T09:00:12.103Z,708.00
2017-12-30T09:01:12.009Z,760.00
2017-12-30T09:03:05.280Z,732.00
2017-12-30T09:04:05.197Z,716.00
2017-12-30T09:05:58.466Z,860.00
2017-12-30T09:06:58.371Z,1060.00
2017-12-30T09:08:51.632Z,1164.00
2017-12-30T09:09:51.558Z,964.00
2017-12-30T09:11:44.833Z,1032.00
2017-12-30T09:12:44.735Z,988.00
2017-12-30T09:14:37.986Z,904.00
2017-12-30T09:15:37.913Z,920.00
2017-12-30T09:17:31.181Z,1080.00
2017-12-30T09:18:31.092Z,1096.00
2017-12-30T09:20:24.360Z,1124.00
2017-12-30T09:21:24.268Z,1128.00
2017-12-30T09:23:17.519Z,996.00
2017-12-30T09:24:17.444Z,932.00
2017-12-30T09:26:10.714Z,708.00
2017-12-30T09:27:10.627Z,760.00
2017-12-30T09:29:03.877Z,908.00
2017-12-30T09:30:03.804Z,856.00
2017-12-30T09:31:57.064Z,828.00
2017-12-30T09:32:56.970Z,892.00
2017-12-30T09:34:50.330Z,884.00
2017-12-30T09:35:50.147Z,840.00
2017-12-30T09:37:43.527Z,796.00
2017-12-30T09:38:43.327Z,844.00
2017-12-30T09:40:36.594Z,816.00
2017-12-30T09:41:36.500Z,984.00
2017-12-30T09:43:29.753Z,888.00
2017-12-30T09:44:30.347Z,712.00
2017-12-30T09:46:22.953Z,632.00
2017-12-30T09:47:22.861Z,764.00
2017-12-30T09:49:16.224Z,1036.00
2017-12-30T09:50:16.035Z,1172.00
2017-12-30T09:52:09.414Z,1052.00
2017-12-30T09:53:09.196Z,888.00
2017-12-30T09:55:02.447Z,960.00
2017-12-30T09:56:02.370Z,980.00
2017-12-30T09:57:55.642Z,848.00
2017-12-30T09:58:55.552Z,784.00
2017-12-30T10:00:48.934Z,880.00
2017-12-30T10:01:48.759Z,972.00
2017-12-30T10:03:42.015Z,1132.00
2017-12-30T10:04:41.940Z,1280.00
2017-12-30T10:06:35.218Z,892.00
2017-12-30T10:07:35.119Z,804.00
2017-12-30T10:09:28.382Z,1020.00
2017-12-30T10:10:28.298Z,1104.00
2017-12-30T10:12:21.572Z,1092.00
2017-12-30T10:13:21.485Z,940.00
2017-12-30T10:15:15.840Z,1260.00
2017-12-30T10:16:15.649Z,1300.00
2017-12-30T10:18:08.917Z,1104.00
2017-12-30T10:19:08.827Z,980.00
2017-12-30T10:21:02.106Z,1012.00
2017-12-30T10:22:02.008Z,996.00
2017-12-30T10:23:55.259Z,1232.00
2017-12-30T10:24:55.186Z,1120.00
2017-12-30T10:26:48.460Z,1176.00
2017-12-30T10:27:48.368Z,1184.00
2017-12-30T10:29:41.731Z,1072.00
2017-12-30T10:30:41.552Z,1144.00
2017-12-30T10:32:34.830Z,1264.00
2017-12-30T10:33:34.731Z,1076.00
2017-12-30T10:35:27.985Z,1312.00
2017-12-30T10:36:27.911Z,1276.00
2017-12-30T10:38:21.184Z,1208.00
2017-12-30T10:39:21.092Z,1180.00
2017-12-30T10:41:14.474Z,1076.00
2017-12-30T10:42:14.272Z,1032.00
2017-12-30T10:44:07.524Z,1164.00
2017-12-30T10:45:07.453Z,1188.00
2017-12-30T10:47:00.723Z,1096.00
2017-12-30T10:48:00.637Z,972.00
2017-12-30T10:49:53.878Z,788.00
2017-12-30T10:50:53.806Z,912.00
2017-12-30T10:52:47.079Z,796.00
2017-12-30T10:53:46.988Z,832.00
2017-12-30T10:55:40.241Z,868.00
2017-12-30T10:56:40.169Z,892.00
2017-12-30T10:58:33.446Z,892.00
2017-12-30T10:59:33.355Z,1000.00
2017-12-30T11:01:26.623Z,700.00
2017-12-30T11:02:26.532Z,652.00
2017-12-30T11:04:19.788Z,652.00
2017-12-30T11:05:19.714Z,588.00
2017-12-30T11:07:12.993Z,784.00
2017-12-30T11:08:12.905Z,640.00
2017-12-30T11:10:06.185Z,648.00
2017-12-30T11:11:06.099Z,736.00
2017-12-30T11:12:59.394Z,860.00
2017-12-30T11:13:59.305Z,844.00
2017-12-30T11:15:52.559Z,728.00
2017-12-30T11:16:52.488Z,592.00
2017-12-30T11:18:45.784Z,504.00
2017-12-30T11:19:45.691Z,472.00
2017-12-30T11:21:38.965Z,600.00
2017-12-30T11:22:38.872Z,548.00
2017-12-30T11:24:32.130Z,560.00
2017-12-30T11:25:32.056Z,644.00
2017-12-30T11:27:25.439Z,560.00
2017-12-30T11:28:25.305Z,492.00
2017-12-30T11:30:18.560Z,568.00
2017-12-30T11:31:18.492Z,584.00
2017-12-30T11:33:12.629Z,656.00
2017-12-30T11:34:12.539Z,752.00
2017-12-30T11:36:05.807Z,524.00
2017-12-30T11:37:05.723Z,572.00
2017-12-30T11:38:58.997Z,496.00
2017-12-30T11:39:58.909Z,472.00
2017-12-30T11:41:52.182Z,444.00
2017-12-30T11:42:52.093Z,592.00
2017-12-30T11:44:45.460Z,524.00
2017-12-30T11:45:45.315Z,528.00
2017-12-30T11:47:38.591Z,592.00
2017-12-30T11:48:38.505Z,656.00
2017-12-30T11:50:32.758Z,612.00
2017-12-30T11:51:32.744Z,560.00
2017-12-30T11:53:25.960Z,556.00
2017-12-30T11:54:25.873Z,548.00
2017-12-30T11:56:19.240Z,396.00
2017-12-30T11:57:19.059Z,464.00
2017-12-30T11:59:12.333Z,688.00
2017-12-30T12:00:12.246Z,668.00
2017-12-30T12:02:05.517Z,676.00
2017-12-30T12:03:05.431Z,884.00
2017-12-30T12:04:58.687Z,916.00
2017-12-30T12:05:58.617Z,808.00
2017-12-30T12:07:51.893Z,656.00
2017-12-30T12:08:51.807Z,780.00
2017-12-30T12:10:45.063Z,764.00
2017-12-30T12:11:44.991Z,736.00
2017-12-30T12:13:38.266Z,644.00
2017-12-30T12:14:38.172Z,560.00
2017-12-30T12:16:31.435Z,580.00
2017-12-30T12:17:31.379Z,612.00
2017-12-30T12:19:24.647Z,904.00
2017-12-30T12:20:24.544Z,720.00
2017-12-30T12:22:17.823Z,796.00
2017-12-30T12:23:17.734Z,768.00
2017-12-30T12:25:10.993Z,716.00
2017-12-30T12:26:10.923Z,716.00
2017-12-30T12:28:04.204Z,912.00
2017-12-30T12:29:04.112Z,932.00
2017-12-30T12:30:57.392Z,576.00
2017-12-30T12:31:57.318Z,552.00
2017-12-30T12:33:50.597Z,612.00
2017-12-30T12:34:50.506Z,648.00
2017-12-30T12:36:43.764Z,800.00
2017-12-30T12:37:43.695Z,832.00
2017-12-30T12:39:36.968Z,676.00
2017-12-30T12:40:36.876Z,920.00
2017-12-30T12:42:30.173Z,1116.00
2017-12-30T12:43:30.069Z,924.00
2017-12-30T12:45:23.377Z,684.00
2017-12-30T12:46:23.308Z,632.00
2017-12-30T12:48:16.692Z,828.00
2017-12-30T12:49:16.504Z,772.00
2017-12-30T12:51:09.759Z,776.00
2017-12-30T12:52:09.687Z,544.00
2017-12-30T12:54:02.969Z,960.00
2017-12-30T12:55:02.881Z,1188.00
2017-12-30T12:56:56.141Z,1112.00
2017-12-30T12:57:56.071Z,904.00
2017-12-30T12:59:49.395Z,1188.00
2017-12-30T13:00:49.309Z,1232.00
2017-12-30T13:02:42.653Z,1400.00
2017-12-30T13:03:42.560Z,1392.00
2017-12-30T13:05:35.819Z,1352.00
2017-12-30T13:06:35.752Z,1148.00
2017-12-30T13:08:29.030Z,1132.00
2017-12-30T13:09:28.943Z,1096.00
2017-12-30T13:11:22.202Z,688.00
2017-12-30T13:12:22.137Z,788.00
2017-12-30T13:14:15.453Z,1124.00
2017-12-30T13:15:15.333Z,972.00
2017-12-30T13:17:08.591Z,740.00
2017-12-30T13:18:08.525Z,688.00
2017-12-30T13:20:01.796Z,900.00
2017-12-30T13:21:01.708Z,1020.00
2017-12-30T13:22:54.988Z,1324.00
2017-12-30T13:23:54.909Z,1236.00
2017-12-30T13:25:48.215Z,1316.00
2017-12-30T13:26:48.100Z,1060.00
2017-12-30T13:28:41.398Z,760.00
2017-12-30T13:29:41.311Z,820.00
2017-12-30T13:31:34.592Z,1048.00
2017-12-30T13:32:34.530Z,972.00
2017-12-30T13:34:27.914Z,1060.00
2017-12-30T13:35:27.719Z,1200.00
2017-12-30T13:37:20.982Z,1236.00
2017-12-30T13:38:20.914Z,1192.00
2017-12-30T13:40:14.302Z,820.00
2017-12-30T13:41:14.111Z,692.00
2017-12-30T13:43:07.396Z,800.00
2017-12-30T13:44:07.334Z,1044.00
2017-12-30T13:46:00.569Z,1096.00
2017-12-30T13:47:00.504Z,1188.00
2017-12-30T13:48:53.892Z,1172.00
2017-12-30T13:49:53.699Z,1072.00
2017-12-30T13:51:47.070Z,1092.00
2017-12-30T13:52:46.896Z,988.00
2017-12-30T13:54:40.191Z,1160.00
2017-12-30T13:55:40.104Z,1180.00
2017-12-30T13:57:33.378Z,1008.00
2017-12-30T13:58:33.307Z,936.00
2017-12-30T14:00:26.697Z,992.00
2017-12-30T14:01:26.504Z,1072.00
2017-12-30T14:03:19.786Z,1228.00
2017-12-30T14:04:19.699Z,1300.00
2017-12-30T14:06:12.979Z,1100.00
2017-12-30T14:07:12.895Z,924.00
2017-12-30T14:09:06.174Z,804.00
2017-12-30T14:10:06.094Z,828.00
2017-12-30T14:11:59.382Z,748.00
2017-12-30T14:12:59.310Z,648.00
2017-12-30T14:14:52.592Z,656.00
2017-12-30T14:15:52.504Z,652.00
2017-12-30T14:17:45.768Z,596.00
2017-12-30T14:18:45.698Z,672.00
2017-12-30T14:20:38.983Z,596.00
2017-12-30T14:21:38.898Z,588.00
2017-12-30T14:23:32.289Z,512.00
2017-12-30T14:24:32.093Z,544.00
2017-12-30T14:26:25.463Z,584.00
2017-12-30T14:27:25.312Z,524.00
2017-12-30T14:29:18.584Z,452.00
2017-12-30T14:30:18.497Z,476.00
2017-12-30T14:32:11.868Z,584.00
2017-12-30T14:33:11.693Z,528.00
2017-12-30T14:35:04.976Z,420.00
2017-12-30T14:36:04.889Z,388.00
2017-12-30T14:37:58.153Z,452.00
2017-12-30T14:38:58.086Z,396.00
2017-12-30T14:40:51.474Z,352.00
2017-12-30T14:41:51.311Z,392.00
2017-12-30T14:43:44.591Z,536.00
2017-12-30T14:44:44.506Z,416.00
2017-12-30T14:46:37.877Z,380.00
2017-12-30T14:47:37.702Z,492.00
2017-12-30T14:49:30.988Z,488.00
2017-12-30T14:50:30.892Z,448.00
2017-12-30T14:52:24.269Z,448.00
2017-12-30T14:53:24.094Z,480.00
2017-12-30T14:55:17.405Z,512.00
2017-12-30T14:56:17.313Z,524.00
2017-12-30T14:58:10.577Z,488.00
2017-12-30T14:59:10.510Z,472.00
2017-12-30T15:01:03.803Z,404.00
2017-12-30T15:02:03.705Z,348.00
2017-12-30T15:03:56.988Z,264.00
2017-12-30T15:04:56.903Z,268.00
2017-12-30T15:06:50.168Z,200.00
2017-12-30T15:07:50.110Z,224.00
2017-12-30T15:09:43.399Z,184.00
2017-12-30T15:10:43.313Z,192.00
2017-12-30T15:12:36.577Z,184.00
2017-12-30T15:13:36.529Z,176.00
2017-12-30T15:15:29.795Z,156.00
2017-12-30T15:16:29.705Z,152.00
2017-12-30T15:18:22.979Z,140.00
2017-12-30T15:19:22.902Z,100.00
2017-12-30T15:21:16.184Z,96.00
2017-12-30T15:22:16.102Z,84.00
2017-12-30T15:24:09.486Z,48.00
2017-12-30T15:25:09.313Z,48.00
2017-12-30T15:27:02.575Z,44.00
2017-12-30T15:28:02.508Z,48.00
2017-12-30T15:29:55.789Z,32.00
2017-12-30T15:30:55.698Z,28.00
2017-12-30T15:32:48.967Z,32.00
2017-12-30T15:33:48.898Z,28.00
2017-12-30T15:35:42.179Z,20.00
2017-12-30T15:36:42.093Z,24.00
2017-12-30T15:38:35.378Z,20.00
2017-12-30T15:39:35.317Z,16.00
2017-12-30T15:41:28.592Z,16.00
2017-12-30T15:42:28.509Z,16.00
2017-12-30T15:44:21.808Z,12.00
2017-12-30T15:45:21.707Z,8.00
2017-12-30T15:47:14.978Z,8.00
2017-12-30T15:48:14.912Z,4.00
2017-12-30T15:50:08.307Z,4.00
2017-12-30T15:51:08.105Z,4.00
2017-12-30T15:53:01.376Z,4.00
2017-12-30T15:54:01.310Z,0.00
2017-12-30T15:55:54.593Z,4.00
2017-12-30T15:56:54.510Z,4.00
2017-12-30T15:58:47.770Z,0.00
2017-12-30T15:59:47.703Z,0.00
2017-12-30T16:01:40.984Z,0.00
2017-12-30T16:02:40.899Z,4.00
2017-12-30T16:04:34.178Z,0.00
2017-12-30T16:05:34.088Z,0.00
2017-12-30T16:07:27.377Z,0.00
2017-12-30T16:08:27.311Z,0.00
2017-12-30T16:10:20.700Z,0.00
2017-12-30T16:11:20.506Z,0.00
2017-12-30T16:13:13.773Z,0.00
2017-12-30T16:14:13.708Z,0.00
2017-12-30T16:16:07.099Z,0.00
2017-12-30T16:17:06.904Z,0.00
2017-12-30T16:19:00.160Z,0.00
2017-12-30T16:20:00.102Z,0.00
2017-12-30T16:21:53.399Z,0.00
2017-12-30T16:22:53.314Z,0.00
2017-12-30T16:24:46.593Z,0.00
2017-12-30T16:25:46.508Z,0.00
2017-12-30T16:27:39.775Z,0.00
2017-12-30T16:28:39.708Z,0.00
2017-12-30T16:30:32.996Z,0.00
2017-12-30T16:31:32.909Z,0.00
2017-12-30T16:33:26.169Z,0.00
2017-12-30T16:34:26.103Z,0.00
2017-12-30T16:36:19.401Z,0.00
2017-12-30T16:37:19.313Z,0.00
2017-12-30T16:39:12.580Z,0.00
2017-12-30T16:40:12.509Z,0.00
2017-12-30T16:42:05.801Z,0.00
2017-12-30T16:43:05.707Z,0.00
2017-12-30T16:44:58.992Z,0.00
2017-12-30T16:45:58.906Z,0.00
2017-12-30T16:47:52.170Z,0.00
2017-12-30T16:48:52.104Z,0.00
2017-12-30T16:50:45.452Z,0.00
2017-12-30T16:51:45.319Z,0.00
2017-12-30T16:53:38.578Z,0.00
2017-12-30T16:54:38.510Z,0.00
2017-12-30T16:56:31.790Z,0.00
2017-12-30T16:57:31.708Z,0.00
2017-12-30T16:59:24.961Z,0.00
2017-12-30T17:00:24.892Z,0.00
2017-12-30T17:02:18.172Z,0.00
2017-12-30T17:03:18.089Z,0.00
2017-12-30T17:05:11.395Z,0.00
2017-12-30T17:06:11.309Z,0.00
2017-12-30T17:08:04.576Z,0.00
2017-12-30T17:09:04.510Z,0.00
2017-12-30T17:10:57.792Z,0.00
2017-12-30T17:11:57.705Z,0.00
2017-12-30T17:13:51.967Z,0.00
2017-12-30T17:14:51.899Z,0.00
2017-12-30T17:16:45.288Z,0.00
2017-12-30T17:17:45.093Z,0.00
2017-12-30T17:19:38.348Z,0.00
2017-12-30T17:20:38.280Z,0.00
2017-12-30T17:22:31.560Z,0.00
2017-12-30T17:23:31.485Z,0.00
2017-12-30T17:25:24.767Z,0.00
2017-12-30T17:26:24.677Z,0.00
2017-12-30T17:28:17.939Z,0.00
2017-12-30T17:29:17.872Z,0.00
2017-12-30T17:31:11.154Z,0.00
2017-12-30T17:32:11.066Z,0.00
2017-12-30T17:34:04.332Z,0.00
2017-12-30T17:35:04.262Z,0.00
2017-12-30T17:36:57.548Z,0.00
2017-12-30T17:37:57.461Z,0.00
2017-12-30T17:39:50.716Z,0.00
2017-12-30T17:40:50.645Z,0.00
2017-12-30T17:42:43.930Z,0.00
2017-12-30T17:43:43.842Z,0.00
2017-12-30T17:45:37.125Z,0.00
2017-12-30T17:46:37.038Z,0.00
2017-12-30T17:48:30.296Z,0.00
2017-12-30T17:49:30.235Z,0.00
2017-12-30T17:51:23.516Z,0.00
2017-12-30T17:52:23.432Z,0.00
2017-12-30T17:54:16.722Z,0.00
2017-12-30T17:55:16.652Z,0.00
2017-12-30T17:57:09.934Z,0.00
2017-12-30T17:58:09.847Z,0.00
2017-12-30T18:00:03.105Z,0.00
2017-12-30T18:01:03.032Z,0.00
2017-12-30T18:02:56.316Z,0.00
2017-12-30T18:03:56.230Z,0.00
2017-12-30T18:05:49.512Z,0.00
2017-12-30T18:06:49.427Z,0.00
2017-12-30T18:08:42.692Z,0.00
2017-12-30T18:09:42.624Z,0.00
2017-12-30T18:11:35.908Z,0.00
2017-12-30T18:12:35.820Z,0.00
2017-12-30T18:14:29.083Z,0.00
2017-12-30T18:15:29.023Z,0.00
2017-12-30T18:17:22.300Z,0.00
2017-12-30T18:18:22.214Z,0.00
2017-12-30T18:20:15.510Z,0.00
2017-12-30T18:21:15.408Z,0.00
2017-12-30T18:23:08.666Z,0.00
2017-12-30T18:24:08.600Z,0.00
2017-12-30T18:26:01.883Z,0.00
2017-12-30T18:27:01.791Z,0.00
2017-12-30T18:28:55.057Z,0.00
2017-12-30T18:29:54.996Z,0.00
2017-12-30T18:31:48.276Z,0.00
2017-12-30T18:32:48.190Z,0.00
2017-12-30T18:34:41.452Z,0.00
2017-12-30T18:35:41.386Z,0.00
2017-12-30T18:37:34.666Z,0.00